AirNav   Everest Fuels
 
 650 users online  

6Y5 Two Hearted Airstrip
Newberry, Michigan, USA


FAA INFORMATION EFFECTIVE 10 OCTOBER 2019

Location

FAA Identifier: 6Y5
Lat/Long: 46-41-36.0450N 085-25-19.5450W
46-41.600750N 085-25.325750W
46.6933458,-85.4220958
(estimated)
Elevation: 680 ft. / 207 m (estimated)
From city: 20 miles N of NEWBERRY, MI
Time zone: UTC -4 (UTC -5 during Standard Time)
Zip code: 49768

Airport Operations

Airport use: Open to the public
Activation date: 03/2018
Control tower: no
ARTCC: MINNEAPOLIS CENTER
FSS: GREEN BAY FLIGHT SERVICE STATION
NOTAMs facility: GRB (NOTAM-D service available)
Attendance: 
Segmented circle: no

Airport Communications

CTAF: 122.9

Airport Services

Runway Information

Runway 7/25

Dimensions: 2400 x 75 ft. / 732 x 23 m
Surface: turf, in poor condition
RWY ROUGH & UNEVEN, SOME SOFT AREAS.
RUNWAY 7  RUNWAY 25
Latitude: 46-41.498500N46-41.703000N
Longitude: 085-25.571167W085-25.080333W
Elevation: 678.0 ft.672.0 ft.
Traffic pattern: leftleft
Obstructions: 38 ft. trees, 560 ft. from runway, 14:1 slope to clear25 ft. trees, 64 ft. from runway, 65 ft. right of centerline, 2:1 slope to clear

Airport Ownership and Management from official FAA records

Ownership: Publicly-owned
Owner: STATE OF MICHIGAN
DNR P.O. BOX 30452
LANSING, MI 48909
Phone 517-284-6367
Manager: JAY HOLLNAGEL
5523 COUNTY RD. 399
NEWBERRY, MI 49686
Phone 906-291-0570
ASST MGR BRAD FREDERICK 248-761-5615.

Additional Remarks

ARPT CLSD NOV-MAY 15 AND WHEN SNOW COVERED EXCP FOR SKI EQUIP ACFT. NO SNOW REMOVAL.
FQT HIGH WINDS OFF LAKE SUPERIOR.
FOR CD CTC MINNEAPOLIS ARTCC AT 651-463-5588.

Instrument Procedures

There are no published instrument procedures at 6Y5.

Some nearby airports with instrument procedures:

KERY - Luce County Airport (23 nm S)
KANJ - Sault Ste Marie Municipal Airport/Sanderson Field (45 nm E)
KCIU - Chippewa County International Airport (47 nm SE)
KISQ - Schoolcraft County Airport (53 nm SW)
83D - Mackinac County Airport (56 nm SE)
 
Loc | Ops | Rwys | IFR | FBO | Links
Com | Nav | Svcs | Stats | Notes
Aerial photo
No photo
 
Airport distance calculator
Flying to Two Hearted Airstrip? Find the distance to fly.

From to 6Y5

Sunrise and sunset
Times for 14-Oct-2019
 Local
(UTC-4)
 Zulu
(UTC)
Morning civil twilight07:2911:29
Sunrise07:5911:59
Sunset18:5622:56
Evening civil twilight19:2723:27

Current date and time
Zulu (UTC)  14-Oct-2019 12:05:49
Local (UTC-4)  14-Oct-2019 08:05:49
 
METAR
KERY 
24nm S 
141156Z AUTO 25009KT 10SM SCT049 SCT055 SCT075 02/00 A2982 RMK AO2 T00150003 10028 20015
CYAM 
40nm E 
141140Z 28013G19KT 15SM -SHRA BKN011 BKN030 BKN066 04/02 A2980 RMK CU5CU1ACC1 CIG VRB 8-14 SLP099
CWCI 
41nm NW 
141100Z AUTO 06/04 RMK AO1 1019 SLP074 T00620039 50008
KANJ 
46nm E 
141155Z AUTO 28009G18KT 10SM -RA BKN012 BKN036 OVC070 04/02 A2979 RMK AO2 RAB50 SLP092 P0000 60003 70004 T00390022 10039 20017 51019
TAF
CYAM 
40nm E 
140738Z 1408/1420 27012G22KT P6SM SCT015 BKN030 TEMPO 1408/1420 4SM -SHRA BR BKN008 OVC015 RMK NXT FCST BY 141400Z
NOTAMs
Click for the latest NOTAMs
NOTAMs are issued by the DoD/FAA and will open in a separate window not controlled by AirNav.

 

 
 

Would you like to see your business listed on this page?

 If your business provides an interesting product or service to pilots, flight crews, aircraft, or users of the Two Hearted Airstrip, you should consider listing it here.  To start the listing process, click on the button below
 
Add a business
 

Other Pages about Two Hearted Airstrip

Page from the Michigan Airport Directory (PDF)
 
Update a link
 
Copyright © AirNav, LLC. All rights reserved. Privacy Policy  Contact